createdAt,value
2022-11-30T00:01:19.878Z,53.33
2022-11-30T00:03:49.976Z,55.20
2022-11-30T00:06:23.001Z,52.20
2022-11-30T00:08:51.506Z,55.93
2022-11-30T00:11:21.187Z,47.83
2022-11-30T00:13:49.456Z,60.30
2022-11-30T00:16:17.781Z,62.23
2022-11-30T00:18:45.965Z,59.73
2022-11-30T00:21:15.834Z,56.27
2022-11-30T00:23:45.641Z,54.77
2022-11-30T00:26:16.275Z,58.87
2022-11-30T00:28:45.727Z,57.07
2022-11-30T00:31:15.246Z,55.07
2022-11-30T00:33:43.794Z,53.03
2022-11-30T00:36:13.214Z,54.27
2022-11-30T00:38:42.900Z,57.00
2022-11-30T00:41:11.453Z,53.67
2022-11-30T00:43:39.725Z,58.37
2022-11-30T00:46:09.894Z,52.20
2022-11-30T00:48:38.190Z,56.10
2022-11-30T00:51:06.969Z,58.30
2022-11-30T00:53:35.046Z,57.97
2022-11-30T00:56:04.742Z,56.63
2022-11-30T00:58:32.845Z,59.17
2022-11-30T01:01:01.537Z,57.77
2022-11-30T01:03:29.679Z,60.43
2022-11-30T01:06:02.858Z,58.77
2022-11-30T01:08:30.959Z,62.40
2022-11-30T01:11:09.184Z,53.00
2022-11-30T01:13:37.598Z,63.53
2022-11-30T01:16:10.943Z,65.00
2022-11-30T01:18:39.295Z,56.37
2022-11-30T01:21:08.839Z,63.07
2022-11-30T01:23:36.988Z,63.13
2022-11-30T01:26:05.051Z,64.80
2022-11-30T01:28:34.918Z,67.33
2022-11-30T01:31:04.831Z,69.23
2022-11-30T01:33:33.091Z,68.13
2022-11-30T01:36:02.353Z,71.00
2022-11-30T01:38:33.088Z,59.97
2022-11-30T01:41:01.246Z,63.90
2022-11-30T01:43:40.946Z,69.63
2022-11-30T01:46:20.330Z,66.17
2022-11-30T01:48:50.507Z,61.50
2022-11-30T01:51:18.656Z,72.23
2022-11-30T01:53:46.869Z,73.93
2022-11-30T01:56:14.865Z,79.00
2022-11-30T01:58:44.347Z,64.57
2022-11-30T02:01:12.495Z,68.53
2022-11-30T02:03:43.412Z,76.00
2022-11-30T02:06:11.489Z,74.40
2022-11-30T02:08:39.721Z,79.63
2022-11-30T02:11:13.431Z,89.07
2022-11-30T02:14:00.404Z,85.33
2022-11-30T02:16:33.738Z,87.90
2022-11-30T02:19:09.854Z,90.87
2022-11-30T02:21:41.672Z,87.33
2022-11-30T02:24:21.697Z,87.37
2022-11-30T02:27:01.015Z,96.27
2022-11-30T02:29:31.664Z,89.47
2022-11-30T02:32:05.049Z,91.93
2022-11-30T02:34:34.402Z,87.73
2022-11-30T02:37:02.510Z,90.23
2022-11-30T02:39:30.445Z,73.60
2022-11-30T02:41:58.508Z,84.70
2022-11-30T02:44:26.773Z,88.03
2022-11-30T02:47:03.275Z,83.23
2022-11-30T02:49:34.568Z,83.03
2022-11-30T02:52:03.853Z,89.63
2022-11-30T02:54:31.880Z,84.07
2022-11-30T02:56:59.911Z,95.20
2022-11-30T02:59:28.093Z,81.20
2022-11-30T03:01:57.536Z,79.00
2022-11-30T03:04:25.704Z,87.57
2022-11-30T03:06:53.654Z,85.77
2022-11-30T03:09:21.789Z,86.10
2022-11-30T03:11:49.833Z,84.17
2022-11-30T03:14:17.866Z,88.30
2022-11-30T03:16:45.868Z,92.73
2022-11-30T03:19:15.509Z,93.47
2022-11-30T03:21:43.759Z,92.40
2022-11-30T03:24:11.763Z,86.57
2022-11-30T03:26:40.206Z,92.27
2022-11-30T03:29:08.343Z,90.00
2022-11-30T03:31:36.373Z,98.53
2022-11-30T03:34:04.462Z,104.50
2022-11-30T03:36:34.116Z,91.37
2022-11-30T03:39:02.390Z,98.97
2022-11-30T03:41:30.429Z,106.30
2022-11-30T03:43:58.414Z,99.03
2022-11-30T03:46:27.522Z,101.77
2022-11-30T03:48:55.712Z,106.73
2022-11-30T03:51:24.836Z,102.90
2022-11-30T03:53:54.206Z,105.73
2022-11-30T03:56:22.168Z,109.60
2022-11-30T03:58:50.113Z,97.87
2022-11-30T04:01:22.274Z,95.67
2022-11-30T04:03:51.283Z,102.93
2022-11-30T04:06:20.239Z,101.13
2022-11-30T04:08:48.543Z,98.40
2022-11-30T04:11:18.179Z,87.33
2022-11-30T04:13:46.597Z,91.37
2022-11-30T04:16:14.722Z,96.67
2022-11-30T04:18:42.804Z,85.17
2022-11-30T04:21:11.553Z,90.73
2022-11-30T04:23:41.146Z,96.70
2022-11-30T04:26:12.325Z,93.03
2022-11-30T04:28:42.113Z,96.20
2022-11-30T04:31:10.556Z,83.27
2022-11-30T04:33:38.680Z,78.83
2022-11-30T04:36:08.679Z,78.83
2022-11-30T04:38:37.835Z,79.90
2022-11-30T04:41:08.889Z,74.97
2022-11-30T04:43:37.038Z,75.00
2022-11-30T04:46:07.484Z,74.67
2022-11-30T04:48:35.854Z,76.83
2022-11-30T04:51:04.268Z,69.07
2022-11-30T04:53:32.253Z,71.67
2022-11-30T04:56:00.298Z,67.70
2022-11-30T04:58:28.240Z,65.37
2022-11-30T05:00:56.339Z,68.97
2022-11-30T05:03:25.728Z,63.03
2022-11-30T05:05:53.728Z,61.47
2022-11-30T05:08:21.716Z,63.20
2022-11-30T05:10:53.561Z,64.67
2022-11-30T05:13:22.140Z,60.73
2022-11-30T05:15:50.215Z,67.37
2022-11-30T05:18:18.237Z,69.43
2022-11-30T05:20:49.964Z,69.97
2022-11-30T05:23:18.319Z,69.33
2022-11-30T05:25:46.482Z,73.50
2022-11-30T05:28:14.786Z,75.63
2022-11-30T05:30:43.952Z,74.47
2022-11-30T05:33:12.050Z,77.93
2022-11-30T05:35:40.149Z,75.53
2022-11-30T05:38:09.583Z,77.73
2022-11-30T05:40:37.744Z,74.77
2022-11-30T05:43:06.222Z,89.57
2022-11-30T05:45:34.267Z,85.63
2022-11-30T05:48:02.301Z,87.27
2022-11-30T05:50:30.321Z,97.70
2022-11-30T05:53:00.918Z,97.23
2022-11-30T05:55:32.338Z,97.33
2022-11-30T05:58:00.484Z,90.83
2022-11-30T06:00:28.643Z,94.30
2022-11-30T06:02:58.331Z,92.53
2022-11-30T06:05:26.712Z,95.03
2022-11-30T06:07:54.819Z,109.20
2022-11-30T06:10:25.282Z,91.30
2022-11-30T06:12:54.760Z,108.53
2022-11-30T06:15:22.941Z,100.43
2022-11-30T06:17:51.037Z,101.40
2022-11-30T06:20:19.274Z,99.60
2022-11-30T06:22:47.771Z,98.50
2022-11-30T06:25:16.137Z,100.00
2022-11-30T06:27:44.666Z,101.87
2022-11-30T06:30:15.734Z,97.90
2022-11-30T06:32:46.415Z,102.07
2022-11-30T06:35:14.597Z,89.27
2022-11-30T06:37:42.624Z,89.43
2022-11-30T06:40:11.962Z,90.27
2022-11-30T06:42:40.396Z,90.33
2022-11-30T06:45:09.738Z,93.67
2022-11-30T06:47:39.195Z,95.00
2022-11-30T06:50:09.715Z,89.47
2022-11-30T06:52:37.927Z,89.53
2022-11-30T06:55:06.748Z,91.10
2022-11-30T06:57:34.920Z,91.90
2022-11-30T07:00:03.220Z,92.03
2022-11-30T07:02:31.480Z,83.47
2022-11-30T07:05:01.008Z,83.33
2022-11-30T07:07:30.063Z,83.47
2022-11-30T07:09:58.351Z,84.37
2022-11-30T07:12:26.459Z,83.73
2022-11-30T07:14:56.570Z,91.87
2022-11-30T07:17:24.737Z,94.20
2022-11-30T07:19:52.971Z,92.07
2022-11-30T07:22:22.432Z,93.73
2022-11-30T07:25:07.847Z,98.03
2022-11-30T07:27:36.003Z,99.63
2022-11-30T07:30:04.435Z,103.43
2022-11-30T07:32:32.858Z,112.20
2022-11-30T07:35:01.149Z,104.00
2022-11-30T07:37:30.813Z,107.23
2022-11-30T07:39:59.355Z,107.20
2022-11-30T07:42:27.679Z,110.50
2022-11-30T07:44:59.111Z,114.03
2022-11-30T07:47:28.971Z,100.90
2022-11-30T07:50:47.060Z,107.50
2022-11-30T08:13:24.978Z,82.63
2022-11-30T08:53:40.345Z,50.53
2022-11-30T08:56:35.981Z,51.40
2022-11-30T08:59:04.160Z,51.37
2022-11-30T09:01:33.818Z,50.63
2022-11-30T09:04:01.997Z,47.07
2022-11-30T09:06:31.266Z,43.57
2022-11-30T09:08:59.959Z,45.03
2022-11-30T09:11:30.287Z,47.33
2022-11-30T09:14:01.649Z,42.67
2022-11-30T09:16:30.013Z,42.10
2022-11-30T09:18:58.928Z,39.93
2022-11-30T09:21:27.461Z,41.83
2022-11-30T09:23:56.706Z,38.73
2022-11-30T09:26:25.760Z,38.57
2022-11-30T09:28:54.793Z,41.37
2022-11-30T09:31:25.912Z,44.40
2022-11-30T09:33:56.561Z,40.77
2022-11-30T09:36:27.371Z,37.80
2022-11-30T09:39:03.131Z,36.83
2022-11-30T09:41:53.345Z,39.73
2022-11-30T09:44:26.620Z,39.83
2022-11-30T09:47:04.197Z,39.83
2022-11-30T09:49:33.396Z,41.40
2022-11-30T09:52:04.911Z,40.03
2022-11-30T09:54:37.661Z,42.97
2022-11-30T09:57:11.017Z,37.33
2022-11-30T09:59:39.766Z,41.63
2022-11-30T10:02:15.792Z,45.20
2022-11-30T10:04:44.884Z,38.17
2022-11-30T10:07:25.992Z,38.20
2022-11-30T10:12:57.934Z,42.03
2022-11-30T10:15:34.724Z,38.23
2022-11-30T10:18:12.187Z,38.83
2022-11-30T10:21:00.974Z,40.13
2022-11-30T10:24:01.482Z,43.27
2022-11-30T10:26:33.867Z,40.10
2022-11-30T10:29:27.514Z,40.50
2022-11-30T10:32:10.808Z,40.73
2022-11-30T10:34:42.135Z,36.50
2022-11-30T10:37:14.448Z,39.83
2022-11-30T10:39:48.112Z,41.33
2022-11-30T10:42:30.921Z,42.90
2022-11-30T10:45:02.049Z,41.37
2022-11-30T10:47:37.185Z,41.43
2022-11-30T10:50:08.656Z,43.50
2022-11-30T10:52:47.703Z,46.10
2022-11-30T10:55:19.388Z,47.90
2022-11-30T10:57:48.536Z,47.23
2022-11-30T11:00:18.382Z,47.23
2022-11-30T11:02:48.496Z,48.33
2022-11-30T11:06:43.175Z,52.53
2022-11-30T11:18:24.047Z,46.33
2022-11-30T11:25:43.932Z,52.70
2022-11-30T11:28:40.005Z,52.00
2022-11-30T11:31:26.408Z,49.33
2022-11-30T11:42:31.848Z,53.50
2022-11-30T11:45:32.452Z,48.80
2022-11-30T11:48:52.618Z,48.67
2022-11-30T11:51:31.345Z,51.33
2022-11-30T11:54:00.316Z,51.33
2022-11-30T11:56:32.118Z,55.80
2022-11-30T11:59:02.452Z,52.37
2022-11-30T12:01:42.186Z,54.47
2022-11-30T12:04:33.051Z,53.50
2022-11-30T12:07:05.672Z,54.07
2022-11-30T12:09:37.432Z,54.03
2022-11-30T12:12:06.160Z,53.30
2022-11-30T12:14:35.564Z,56.00
2022-11-30T12:17:10.973Z,57.67
2022-11-30T12:19:42.716Z,53.77
2022-11-30T12:22:26.136Z,53.70
2022-11-30T12:25:06.070Z,52.27
2022-11-30T12:27:39.814Z,55.00
2022-11-30T12:30:15.267Z,56.00
2022-11-30T12:33:13.887Z,52.67
2022-11-30T12:35:49.063Z,58.97
2022-11-30T12:38:27.707Z,62.63
2022-11-30T12:41:02.123Z,59.33
2022-11-30T12:43:36.846Z,57.03
2022-11-30T12:46:11.183Z,58.73
2022-11-30T12:48:42.956Z,59.00
2022-11-30T12:51:22.787Z,55.00
2022-11-30T12:54:00.418Z,55.97
2022-11-30T12:56:37.586Z,58.30
2022-11-30T12:59:17.849Z,56.90
2022-11-30T13:01:57.094Z,61.20
2022-11-30T13:04:29.841Z,58.23
2022-11-30T13:07:01.811Z,56.70
2022-11-30T13:09:35.790Z,62.57
2022-11-30T13:12:08.522Z,59.83
2022-11-30T13:14:37.687Z,57.87
2022-11-30T13:17:07.706Z,63.23
2022-11-30T13:19:49.951Z,60.10
2022-11-30T13:22:24.924Z,63.50
2022-11-30T13:25:00.847Z,60.53
2022-11-30T13:27:32.771Z,62.40
2022-11-30T13:30:10.720Z,64.60
2022-11-30T13:33:08.942Z,64.47
2022-11-30T13:35:55.020Z,62.13
2022-11-30T13:38:39.024Z,58.77
2022-11-30T13:41:09.385Z,63.23
2022-11-30T13:43:42.351Z,63.33
2022-11-30T13:46:17.414Z,64.40
2022-11-30T13:48:46.800Z,64.80
2022-11-30T13:51:37.600Z,63.37
2022-11-30T13:54:43.889Z,75.27
2022-11-30T13:57:59.805Z,64.97
2022-11-30T14:01:02.877Z,68.77
2022-11-30T14:03:32.813Z,64.80
2022-11-30T14:06:10.255Z,70.83
2022-11-30T14:08:39.922Z,68.90
2022-11-30T14:11:38.427Z,66.27
2022-11-30T14:14:49.963Z,66.77
2022-11-30T14:17:24.628Z,64.50
2022-11-30T14:20:00.359Z,64.63
2022-11-30T14:22:33.415Z,67.53
2022-11-30T14:25:07.318Z,73.33
2022-11-30T14:27:38.131Z,68.90
2022-11-30T14:30:20.229Z,69.23
2022-11-30T14:32:55.888Z,71.60
2022-11-30T14:35:26.147Z,68.03
2022-11-30T14:37:57.949Z,72.77
2022-11-30T14:40:31.367Z,68.27
2022-11-30T14:43:02.031Z,67.67
2022-11-30T14:45:37.547Z,69.13
2022-11-30T14:48:09.091Z,68.30
2022-11-30T14:50:45.365Z,65.50
2022-11-30T14:53:26.161Z,73.20
2022-11-30T14:56:00.667Z,77.43
2022-11-30T14:58:35.065Z,69.77
2022-11-30T15:01:15.314Z,65.83
2022-11-30T15:03:46.849Z,69.07
2022-11-30T15:06:18.614Z,70.13
2022-11-30T15:08:50.574Z,71.63
2022-11-30T15:11:20.458Z,68.37
2022-11-30T15:13:52.912Z,67.80
2022-11-30T15:16:28.962Z,62.57
2022-11-30T15:19:00.877Z,71.53
2022-11-30T15:21:33.995Z,72.53
2022-11-30T15:24:05.707Z,65.53
2022-11-30T15:26:41.825Z,65.03
2022-11-30T15:29:17.153Z,63.83
2022-11-30T15:31:51.742Z,70.20
2022-11-30T15:34:29.588Z,66.57
2022-11-30T15:37:00.489Z,68.60
2022-11-30T15:39:30.798Z,67.60
2022-11-30T15:42:09.996Z,61.90
2022-11-30T15:44:47.040Z,65.77
2022-11-30T15:47:38.315Z,68.13
2022-11-30T15:50:41.364Z,66.63
2022-11-30T15:53:27.194Z,66.80
2022-11-30T15:56:01.559Z,67.90
2022-11-30T15:59:14.526Z,62.30
2022-11-30T16:02:02.516Z,65.57
2022-11-30T16:05:08.392Z,65.43
2022-11-30T16:07:48.154Z,63.70
2022-11-30T16:10:18.409Z,58.20
2022-11-30T16:12:47.785Z,59.07
2022-11-30T16:15:19.026Z,63.57
2022-11-30T16:17:47.438Z,60.33
2022-11-30T16:20:17.672Z,67.07
2022-11-30T16:22:47.403Z,62.53
2022-11-30T16:25:20.865Z,60.37
2022-11-30T16:27:49.897Z,64.60
2022-11-30T16:30:20.125Z,62.10
2022-11-30T16:32:48.561Z,62.27
2022-11-30T16:35:23.512Z,58.07
2022-11-30T16:37:52.220Z,60.37
2022-11-30T16:40:21.302Z,63.63
2022-11-30T16:42:50.528Z,63.20
2022-11-30T16:45:21.963Z,60.70
2022-11-30T16:47:50.431Z,62.70
2022-11-30T16:50:19.558Z,60.33
2022-11-30T16:52:49.636Z,61.30
2022-11-30T16:55:19.543Z,65.13
2022-11-30T16:57:48.649Z,56.87
2022-11-30T17:00:19.048Z,59.40
2022-11-30T17:02:51.871Z,61.43
2022-11-30T17:05:23.835Z,63.10
2022-11-30T17:07:53.561Z,61.17
2022-11-30T17:10:22.519Z,67.40
2022-11-30T17:12:51.158Z,65.33
2022-11-30T17:15:22.404Z,65.33
2022-11-30T17:17:50.667Z,64.40
2022-11-30T17:20:19.418Z,62.20
2022-11-30T17:22:47.694Z,62.50
2022-11-30T17:25:20.376Z,64.70
2022-11-30T17:27:49.540Z,66.07
2022-11-30T17:30:20.647Z,65.93
2022-11-30T17:32:49.149Z,67.23
2022-11-30T17:35:22.779Z,65.97
2022-11-30T17:39:08.603Z,62.93
2022-11-30T17:42:12.023Z,58.23
2022-11-30T17:44:39.996Z,61.77
2022-11-30T17:47:09.004Z,59.43
2022-11-30T17:49:37.411Z,62.40
2022-11-30T17:52:05.822Z,65.17
2022-11-30T17:54:33.817Z,64.93
2022-11-30T17:57:02.011Z,62.60
2022-11-30T17:59:31.545Z,63.00
2022-11-30T18:01:59.641Z,63.47
2022-11-30T18:04:27.809Z,62.87
2022-11-30T18:06:56.024Z,63.23
2022-11-30T18:09:24.468Z,59.53
2022-11-30T18:11:52.639Z,62.47
2022-11-30T18:14:20.788Z,57.23
2022-11-30T18:16:50.501Z,54.80
2022-11-30T18:19:18.928Z,55.70
2022-11-30T18:21:47.668Z,55.57
2022-11-30T18:24:16.688Z,53.37
2022-11-30T18:26:47.222Z,48.83
2022-11-30T18:29:15.555Z,49.97
2022-11-30T18:31:44.391Z,49.23
2022-11-30T18:34:13.875Z,50.60
2022-11-30T18:36:42.178Z,48.60
2022-11-30T18:39:11.273Z,47.90
2022-11-30T18:41:39.750Z,50.63
2022-11-30T18:44:07.920Z,51.17
2022-11-30T18:46:36.249Z,46.83
2022-11-30T18:49:06.972Z,49.90
2022-11-30T18:51:36.920Z,49.63
2022-11-30T18:54:07.665Z,42.53
2022-11-30T18:56:37.529Z,41.00
2022-11-30T18:59:07.237Z,39.10
2022-11-30T19:01:36.357Z,39.70
2022-11-30T19:04:07.994Z,40.63
2022-11-30T19:06:40.306Z,39.90
2022-11-30T19:09:11.964Z,41.47
2022-11-30T19:11:40.910Z,38.07
2022-11-30T19:14:09.467Z,38.93
2022-11-30T19:16:41.530Z,35.30
2022-11-30T19:19:12.571Z,35.27
2022-11-30T19:21:44.429Z,33.93
2022-11-30T19:24:12.657Z,36.50
2022-11-30T19:26:41.255Z,35.20
2022-11-30T19:29:09.591Z,38.47
2022-11-30T19:31:38.883Z,40.37
2022-11-30T19:34:12.464Z,38.03
2022-11-30T19:36:42.940Z,39.57
2022-11-30T19:39:11.360Z,42.80
2022-11-30T19:41:39.701Z,39.90
2022-11-30T19:44:08.056Z,40.40
2022-11-30T19:46:36.565Z,38.33
2022-11-30T19:49:05.265Z,41.50
2022-11-30T19:51:34.985Z,38.60
2022-11-30T19:54:05.803Z,41.03
2022-11-30T19:56:35.821Z,37.50
2022-11-30T19:59:05.900Z,42.93
2022-11-30T20:01:39.992Z,41.37
2022-11-30T20:04:09.215Z,42.23
2022-11-30T20:06:39.067Z,42.67
2022-11-30T20:09:10.962Z,40.60
2022-11-30T20:11:40.252Z,37.13
2022-11-30T20:14:11.198Z,39.33
2022-11-30T20:16:39.726Z,38.43
2022-11-30T20:19:08.992Z,32.80
2022-11-30T20:21:37.934Z,34.10
2022-11-30T20:24:10.074Z,31.43
2022-11-30T20:26:39.983Z,30.83
2022-11-30T20:29:09.678Z,27.43
2022-11-30T20:31:38.504Z,28.80
2022-11-30T20:34:08.189Z,24.00
2022-11-30T20:36:37.927Z,25.03
2022-11-30T20:39:06.846Z,30.43
2022-11-30T20:41:36.486Z,25.97
2022-11-30T20:44:05.181Z,23.53
2022-11-30T20:46:35.164Z,21.43
2022-11-30T20:49:04.593Z,24.67
2022-11-30T20:51:34.907Z,23.93
2022-11-30T20:54:05.650Z,19.70
2022-11-30T20:56:35.313Z,22.07
2022-11-30T20:59:07.278Z,20.40
2022-11-30T21:01:36.441Z,20.43
2022-11-30T21:04:05.116Z,18.53
2022-11-30T21:06:33.638Z,19.67
2022-11-30T21:09:02.161Z,18.87
2022-11-30T21:11:30.937Z,21.00
2022-11-30T21:13:59.571Z,19.43
2022-11-30T21:16:30.392Z,20.63
2022-11-30T21:19:00.112Z,19.27
2022-11-30T21:21:31.342Z,19.13
2022-11-30T21:24:01.310Z,20.67
2022-11-30T21:26:31.353Z,17.67
2022-11-30T21:29:02.803Z,20.00
2022-11-30T21:31:33.435Z,17.50
2022-11-30T21:34:01.879Z,18.90
2022-11-30T21:36:31.139Z,20.03
2022-11-30T21:39:05.655Z,19.50
2022-11-30T21:41:35.435Z,18.90
2022-11-30T21:44:07.970Z,22.80
2022-11-30T21:46:39.485Z,20.13
2022-11-30T21:49:09.672Z,19.67
2022-11-30T21:51:39.388Z,21.13
2022-11-30T21:54:12.668Z,18.60
2022-11-30T21:56:46.357Z,19.77
2022-11-30T21:59:16.318Z,20.77
2022-11-30T22:01:49.003Z,23.63
2022-11-30T22:04:20.801Z,20.63
2022-11-30T22:06:50.121Z,20.80
2022-11-30T22:09:20.031Z,16.13
2022-11-30T22:11:49.329Z,19.67
2022-11-30T22:14:25.165Z,19.10
2022-11-30T22:16:58.005Z,21.03
2022-11-30T22:19:26.871Z,20.57
2022-11-30T22:21:59.292Z,20.83
2022-11-30T22:24:29.754Z,19.03
2022-11-30T22:26:59.936Z,17.23
2022-11-30T22:29:32.507Z,17.67
2022-11-30T22:32:04.304Z,19.60
2022-11-30T22:34:36.095Z,17.23
2022-11-30T22:37:05.144Z,18.67
2022-11-30T22:39:33.890Z,19.53
2022-11-30T22:42:03.532Z,20.57
2022-11-30T22:44:32.738Z,20.50
2022-11-30T22:47:03.221Z,21.10
2022-11-30T22:49:32.923Z,17.83
2022-11-30T22:52:03.273Z,18.83
2022-11-30T22:54:34.673Z,18.77
2022-11-30T22:57:05.486Z,17.07
2022-11-30T22:59:34.645Z,18.73
2022-11-30T23:02:09.458Z,16.93
2022-11-30T23:04:40.864Z,18.13
2022-11-30T23:07:11.992Z,15.37
2022-11-30T23:09:44.515Z,16.00
2022-11-30T23:12:42.947Z,16.90
2022-11-30T23:15:13.003Z,17.00
2022-11-30T23:17:46.684Z,19.20
2022-11-30T23:20:15.314Z,17.37
2022-11-30T23:22:43.506Z,17.77
2022-11-30T23:25:14.523Z,18.30
2022-11-30T23:27:42.512Z,18.33
2022-11-30T23:30:10.997Z,16.13
2022-11-30T23:32:38.991Z,16.90
2022-11-30T23:35:09.864Z,17.43
2022-11-30T23:37:37.867Z,17.17
2022-11-30T23:40:07.365Z,13.97
2022-11-30T23:42:35.334Z,12.77
2022-11-30T23:45:03.354Z,14.67
2022-11-30T23:47:31.617Z,13.37
2022-11-30T23:49:59.542Z,13.67
2022-11-30T23:52:29.018Z,14.23
2022-11-30T23:54:57.079Z,13.00
2022-11-30T23:57:25.214Z,13.23
2022-11-30T23:59:53.280Z,13.10
